Main page
METAR-TAF:

METAR-TAF

Airports :

Tulcea Airport

Tulcea, Romania

latitude: 45-11N, longitude: 028-49E, elevation: 4 m

Current weather observation

The report was made 28 minutes ago, at 09:00 UTC
Wind 18 kt from the East/Northeast
Temperature 12°C
Humidity 22%
Pressure 1036 hPa
Visibility 10 km or more
no clouds below 1500 m and no cumulonimbus

METAR: LRTC 060900Z 06018KT CAVOK 12/M09 Q1036

Time: 12:28 (09:28 UTC)

Forecast

The report was made 1 hour and 28 minutes ago, at 08:00 UTC
Forecast valid from 06 at 09 UTC to 06 at 18 UTC
Wind 20 kt from the East/Northeast
Visibility 10 km or more
no clouds below 1500 m and no cumulonimbus
Temporary
from 06 at 09 UTC to 06 at 12 UTC
Wind 20 kt from the East/Northeast with gusts up to 30 kt
Becoming
from 06 at 16 UTC to 06 at 18 UTC
Wind 10 kt from the East/Northeast

TAF: LRTC 060800Z 0609/0618 06020KT CAVOK TEMPO 0609/0612 07020G30KT BECMG 0616/0618 06010KT

Weather observations and forecasts of more than 4000 airports (METAR and TAF reports).

The available stations are represented by yellow and red dots on the map.

Hover mouse over dot to see the name of the station.

Then click to see weather observations and forecasts.

To change the map : click on the green buttons with a black cross to zoom in, on the green button with a dash to zoom out, or on the green arrows for adjacent maps.


METAR-TAF: